Database: COMPET-N - COOP - 3PL - 4PL - CNDOOM

WAD: Doom | Doom 2 | TNT | Plutonia | AV | HR | Scythe | MM | MM2 | Requiem | CE
Category: speed | nmare | max | nm100s | tyson | pacifist | fast | respawn | nomo | misc | built | all
Highscore: ALL | IWAD | PWAD | Country | Continent

< Previous map       Next map >
Remove: wad | map | category | player | allE2M7
MapPlayerTimeDateFilenameCommentsDL
E2M7: Spawning VatsDrew DeVore15.002005-04-22e2m7-015.zip - 422
E2M7: Spawning VatsMarijo Sedlić17.002003-01-19e2m7-017.zip - 239
E2M7: Spawning VatsJonathan Rimmer18.002000-05-18e2m7-018.zip - 193
E2M7: Spawning VatsAdam Hegyi20.001999-06-24e2m7-020.zip - 200
E2M7: Spawning VatsAndy Kempling25.001999-06-22e2m7-025.zip - 235
E2M7: Spawning VatsAdam Williamson38.001999-06-13e2m7-038.zip - 215
E2M7: Spawning VatsAnders Johnsen40.001999-01-19e2m7-040.zip - 196
E2M7: Spawning VatsThomas Pilger41.001998-07-17e2m7-041.zip - 222
E2M7: Spawning VatsIlya Britvich44.001998-04-18e2m7-044.zip - 217
E2M7: Spawning VatsThomas Pilger45.001997-12-13e2m7-045.zip - 197
E2M7: Spawning VatsIlya Britvich46.001997-08-10e2m7-046.zip - 224
E2M7: Spawning VatsThomas Zajic1:11.001996-05-27e2m7-111.zip - 135
E2M7: Spawning VatsKai-Uwe Humpert1:14.001996-05-16e2m7-114.zip - 164
E2M7: Spawning VatsWade Cayton1:16.001996-04-12e2m7-116.zip - 153
E2M7: Spawning VatsKai-Uwe Humpert1:20.001996-05-08e2m7-120.zip - 177
E2M7: Spawning VatsIstvan Pataki1:22.001996-04-26e2m7-122.zip - 195
E2M7: Spawning VatsJonathan Weeks2:47.001995-06-30e2m7-247.zip - 107
E2M7: Spawning VatsEelco de Vries3:33.001995-06-14e2m7-333.zip - 133
E2M7: Spawning VatsJonathan Matthies4:09.001994-12-09e2m7-409.zip - 195
E2M7: Spawning VatsDrew DeVore17.002005-04-21n2m7-017.zip - 385
E2M7: Spawning VatsJonathan Rimmer21.002000-05-01n2m7-021.zip - 210
E2M7: Spawning VatsAdam Williamson25.001999-06-25n2m7-025.zip - 236
E2M7: Spawning VatsAdam Williamson45.001999-06-20n2m7-045.zip - 214
E2M7: Spawning VatsAdam Williamson46.001999-06-17n2m7-046.zip - 231
E2M7: Spawning VatsThomas Pilger48.001998-04-08n2m7-048.zip - 208
E2M7: Spawning VatsPeo Sjoblom54.001997-08-14n2m7-054.zip - 182
E2M7: Spawning VatsIstvan Pataki55.001997-08-13n2m7-055.zip - 190
E2M7: Spawning VatsRobert J. Reevy1:15.001997-07-16n2m7-115.zip - 153
E2M7: Spawning VatsIstvan Pataki1:20.001997-07-16n2m7-120.zip - 175
E2M7: Spawning VatsRobert J. Reevy1:22.001997-07-10n2m7-122.zip - 171
E2M7: Spawning VatsRadek Pecka3:44.002002-09-27e2m7-344.zip - 306
E2M7: Spawning VatsJim Leonard3:48.002002-09-19e2m7-348.zip - 244
E2M7: Spawning VatsRadek Pecka3:50.002002-03-24e2m7-350.zip - 235
E2M7: Spawning VatsRadek Pecka3:59.002000-11-18e2m7-359.zip - 242
E2M7: Spawning VatsIan Sutton4:00.001999-08-29e2m7-400.zip - 198
E2M7: Spawning VatsAnders Johnsen4:14.001999-01-18e2m7-414.zip - 199
E2M7: Spawning VatsPeo Sjoblom4:34.001997-06-26e2m7-434.zip - 171
E2M7: Spawning VatsIstvan Pataki5:01.001996-10-24e2m7-501.zip - 185
E2M7: Spawning VatsWade Cayton5:44.001996-03-31e2m7-544.zip - 145
E2M7: Spawning VatsIstvan Pataki5:50.001996-05-05e2m7-550.zip - 185
E2M7: Spawning VatsKai-Uwe Humpert6:28.001996-05-18e2m7-628.zip - 165
E2M7: Spawning VatsEelco de Vries8:26.001995-07-11e2m7-826.zip - 112
E2M7: Spawning VatsEelco de Vries8:34.001995-05-25e2m7-834.zip - 128
E2M7: Spawning VatsEelco de Vries8:40.001995-04-19e2m7-840.zip - 135
E2M7: Spawning VatsRadek Pecka2:24.002002-09-26n2s7-224.zip - 326
E2M7: Spawning VatsJim Leonard2:25.002002-09-23n2s7-225.zip - 245
E2M7: Spawning VatsRadek Pecka2:27.002002-02-26n2s7-227.zip - 238
E2M7: Spawning VatsChris Ratcliff2:47.002001-04-06n2s7-247.zip - 198
E2M7: Spawning VatsRobert J. Reevy3:07.001999-07-29n2s7-307.zip - 138
E2M7: Spawning VatsAdam Williamson3:28.001999-06-16n2s7-328.zip - 216
E2M7: Spawning VatsRadek Pecka3:51.002004-01-30t2m7-351.zip - 348
E2M7: Spawning VatsJim Leonard3:54.002003-04-05t2m7-354.zip - 261
E2M7: Spawning VatsRadek Pecka4:02.002002-06-10t2m7-402.zip - 209
E2M7: Spawning VatsJim Leonard4:19.002002-05-28t2m7-419.zip - 247
E2M7: Spawning VatsRadek Pecka4:25.002000-11-19t2m7-425.zip - 220
E2M7: Spawning VatsIan Sutton4:29.001999-08-29t2m7-429.zip - 185
E2M7: Spawning VatsAnders Johnsen4:42.001999-03-07t2m7-442.zip - 194
E2M7: Spawning VatsPeo Sjoblom5:18.001997-12-17t2m7-518.zip - 190
E2M7: Spawning VatsJonathan Rimmer19.002001-11-10p2m7-019.zip - 940
E2M7: Spawning VatsVaclav Kunes21.002001-10-30p2m7-021.zip - 218
E2M7: Spawning VatsJonathan Rimmer24.002000-03-23p2m7-024.zip - 178
E2M7: Spawning VatsAdam Williamson28.001999-06-24p2m7-028.zip - 208
E2M7: Spawning VatsAdam Williamson42.001999-06-17p2m7-042.zip - 179
E2M7: Spawning VatsAdam Williamson43.001999-06-15p2m7-043.zip - 198
E2M7: Spawning VatsAndy Badorek50.001998-03-01p2m7-050.zip - 149
E2M7: Spawning VatsRobert J. Reevy3:09.001997-06-01p2m7-309.zip - 104
E2M7: Spawning VatsRadek Pecka4:12.002002-03-24f2m7-412.zip - 279
E2M7: Spawning VatsRadek Pecka4:54.002000-11-19f2m7-454.zip - 240
E2M7: Spawning VatsAnders Johnsen5:09.001999-04-04f2m7-509.zip - 202
E2M7: Spawning VatsSteffen Udluft8:31.001999-03-24f2m7-831.zip - 183
E2M7: Spawning VatsRadek Pecka3:36.002000-11-14r2m7-336.zip - 280
E2M7: Spawning VatsOle Hartvigsen3:38.002000-08-07r2m7-338.zip - 169
E2M7: Spawning VatsOle Hartvigsen3:44.002000-08-06r2m7-344.zip - 203
E2M7: Spawning VatsAdam Williamson3:48.001999-05-30r2m7-348.zip - 182
E2M7: Spawning VatsAdam Williamson4:16.001999-05-26r2m7-416.zip - 207
E2M7: Spawning VatsSteffen Udluft4:52.001998-01-02r2m7-452.zip - 185
E2M7: Spawning VatsArno Slagboom17.892000-05-01u2701789.zip - 321
Remove: wad | map | category | player | all